createdAt,value
2018-07-28T00:00:40.016Z,21.30
2018-07-28T00:03:08.280Z,21.50
2018-07-28T00:05:36.506Z,21.60
2018-07-28T00:08:04.813Z,21.60
2018-07-28T00:10:33.132Z,21.70
2018-07-28T00:13:01.369Z,21.80
2018-07-28T00:15:29.599Z,21.40
2018-07-28T00:17:57.862Z,21.30
2018-07-28T00:20:26.118Z,21.30
2018-07-28T00:22:54.328Z,21.30
2018-07-28T00:25:22.580Z,21.00
2018-07-28T00:27:50.741Z,20.80
2018-07-28T00:30:18.961Z,20.60
2018-07-28T00:32:47.169Z,20.40
2018-07-28T00:35:15.378Z,20.30
2018-07-28T00:37:43.629Z,20.30
2018-07-28T00:40:11.895Z,20.20
2018-07-28T00:42:40.132Z,20.10
2018-07-28T00:45:08.412Z,20.10
2018-07-28T00:47:36.621Z,20.00
2018-07-28T00:50:06.280Z,20.00
2018-07-28T00:52:34.525Z,19.90
2018-07-28T00:55:02.714Z,19.90
2018-07-28T00:57:30.968Z,19.80
2018-07-28T00:59:59.156Z,19.90
2018-07-28T01:02:27.378Z,19.90
2018-07-28T01:04:55.579Z,20.00
2018-07-28T01:07:23.828Z,19.90
2018-07-28T01:09:52.120Z,19.90
2018-07-28T01:12:20.321Z,19.80
2018-07-28T01:14:48.572Z,19.60
2018-07-28T01:17:16.800Z,19.70
2018-07-28T01:19:45.007Z,19.60
2018-07-28T01:22:13.255Z,19.70
2018-07-28T01:24:41.467Z,19.70
2018-07-28T01:27:09.694Z,19.60
2018-07-28T01:29:37.916Z,19.70
2018-07-28T01:32:06.092Z,19.80
2018-07-28T01:34:34.332Z,20.00
2018-07-28T01:37:02.494Z,20.10
2018-07-28T01:39:30.753Z,20.20
2018-07-28T01:41:58.937Z,20.30
2018-07-28T01:44:27.192Z,20.20
2018-07-28T01:46:55.462Z,20.10
2018-07-28T01:49:23.651Z,20.10
2018-07-28T01:51:54.844Z,20.10
2018-07-28T01:54:23.048Z,20.10
2018-07-28T01:56:51.221Z,20.00
2018-07-28T01:59:19.468Z,20.00
2018-07-28T02:01:47.671Z,19.80
2018-07-28T02:04:15.889Z,19.90
2018-07-28T02:06:44.081Z,20.00
2018-07-28T02:09:12.588Z,20.00
2018-07-28T02:11:40.906Z,20.00
2018-07-28T02:14:09.113Z,20.00
2018-07-28T02:16:37.316Z,19.90
2018-07-28T02:19:05.580Z,19.80
2018-07-28T02:21:33.837Z,19.70
2018-07-28T02:24:02.060Z,19.60
2018-07-28T02:26:30.288Z,19.50
2018-07-28T02:28:58.605Z,19.60
2018-07-28T02:31:26.773Z,19.60
2018-07-28T02:33:54.940Z,19.70
2018-07-28T02:36:26.145Z,19.70
2018-07-28T02:38:54.364Z,19.70
2018-07-28T02:41:22.564Z,19.80
2018-07-28T02:43:50.767Z,19.80
2018-07-28T02:46:18.969Z,19.80
2018-07-28T02:48:47.195Z,19.80
2018-07-28T02:51:15.401Z,19.80
2018-07-28T02:53:44.464Z,19.70
2018-07-28T02:56:13.772Z,19.60
2018-07-28T02:58:42.230Z,19.40
2018-07-28T03:01:10.966Z,19.20
2018-07-28T03:03:39.524Z,19.20
2018-07-28T03:06:07.716Z,19.40
2018-07-28T03:08:36.236Z,19.50
2018-07-28T03:11:04.605Z,19.60
2018-07-28T03:13:32.883Z,19.60
2018-07-28T03:16:01.051Z,19.50
2018-07-28T03:18:29.254Z,19.20
2018-07-28T03:20:57.448Z,19.10
2018-07-28T03:23:25.688Z,19.20
2018-07-28T03:25:53.968Z,19.10
2018-07-28T03:28:22.137Z,19.20
2018-07-28T03:30:50.340Z,19.00
2018-07-28T03:33:18.504Z,19.00
2018-07-28T03:35:46.726Z,18.90
2018-07-28T03:38:14.965Z,18.90
2018-07-28T03:40:43.184Z,19.00
2018-07-28T03:43:11.404Z,19.10
2018-07-28T03:45:39.564Z,19.10
2018-07-28T03:48:07.812Z,19.20
2018-07-28T03:50:36.101Z,19.10
2018-07-28T03:53:04.269Z,19.00
2018-07-28T03:55:32.469Z,19.00
2018-07-28T03:58:00.644Z,19.00
2018-07-28T04:00:28.890Z,19.00
2018-07-28T04:02:57.101Z,19.00
2018-07-28T04:05:25.277Z,19.00
2018-07-28T04:07:53.496Z,19.10
2018-07-28T04:10:21.671Z,19.00
2018-07-28T04:12:49.869Z,19.00
2018-07-28T04:15:18.067Z,18.90
2018-07-28T04:17:55.680Z,18.90
2018-07-28T04:20:25.056Z,18.90
2018-07-28T04:22:53.646Z,18.90
2018-07-28T04:25:22.282Z,18.80
2018-07-28T04:27:50.724Z,18.60
2018-07-28T04:30:18.950Z,18.50
2018-07-28T04:32:47.156Z,18.40
2018-07-28T04:35:15.352Z,18.50
2018-07-28T04:37:43.564Z,18.60
2018-07-28T04:40:12.376Z,18.70
2018-07-28T04:42:41.616Z,18.60
2018-07-28T04:45:09.816Z,18.70
2018-07-28T04:47:37.994Z,18.80
2018-07-28T04:50:06.368Z,18.70
2018-07-28T04:52:34.609Z,18.70
2018-07-28T04:55:02.945Z,18.80
2018-07-28T04:57:31.124Z,19.00
2018-07-28T04:59:59.333Z,19.10
2018-07-28T05:02:28.138Z,19.20
2018-07-28T05:04:56.728Z,19.30
2018-07-28T05:07:25.494Z,19.40
2018-07-28T05:09:53.993Z,19.60
2018-07-28T05:12:22.513Z,19.80
2018-07-28T05:14:50.726Z,20.00
2018-07-28T05:17:18.916Z,20.10
2018-07-28T05:19:47.113Z,20.30
2018-07-28T05:22:15.296Z,20.80
2018-07-28T05:24:43.484Z,21.10
2018-07-28T05:27:11.697Z,21.50
2018-07-28T05:29:39.927Z,21.90
2018-07-28T05:32:08.197Z,22.00
2018-07-28T05:34:36.410Z,22.00
2018-07-28T05:37:04.660Z,22.20
2018-07-28T05:39:32.891Z,22.40
2018-07-28T05:42:01.106Z,22.30
2018-07-28T05:44:29.357Z,22.40
2018-07-28T05:46:57.573Z,22.50
2018-07-28T05:49:25.777Z,22.50
2018-07-28T05:51:53.936Z,22.60
2018-07-28T05:54:22.145Z,22.60
2018-07-28T05:56:50.304Z,22.50
2018-07-28T05:59:18.501Z,22.70
2018-07-28T06:01:46.749Z,22.80
2018-07-28T06:04:14.957Z,23.00
2018-07-28T06:06:43.193Z,23.30
2018-07-28T06:09:11.526Z,23.40
2018-07-28T06:11:39.757Z,23.70
2018-07-28T06:14:08.113Z,23.60
2018-07-28T06:16:36.370Z,23.70
2018-07-28T06:19:05.476Z,23.80
2018-07-28T06:21:33.669Z,23.70
2018-07-28T06:24:01.870Z,24.00
2018-07-28T06:26:30.070Z,24.20
2018-07-28T06:28:58.241Z,24.30
2018-07-28T06:31:26.459Z,24.40
2018-07-28T06:33:54.715Z,24.80
2018-07-28T06:36:22.964Z,25.00
2018-07-28T06:38:51.216Z,25.10
2018-07-28T06:41:19.417Z,25.10
2018-07-28T06:43:48.143Z,25.20
2018-07-28T06:46:16.525Z,25.20
2018-07-28T06:48:44.862Z,25.40
2018-07-28T06:51:13.084Z,25.50
2018-07-28T06:53:41.368Z,25.80
2018-07-28T06:56:09.560Z,26.40
2018-07-28T06:58:37.794Z,26.50
2018-07-28T07:01:05.993Z,26.50
2018-07-28T07:03:34.199Z,26.30
2018-07-28T07:06:02.420Z,26.60
2018-07-28T07:10:58.537Z,26.80
2018-07-28T07:13:26.749Z,27.10
2018-07-28T07:15:54.948Z,27.10
2018-07-28T07:18:23.206Z,27.20
2018-07-28T07:20:51.476Z,27.40
2018-07-28T07:23:19.961Z,27.60
2018-07-28T07:25:48.225Z,27.80
2018-07-28T07:28:16.453Z,27.80
2018-07-28T07:30:44.860Z,28.00
2018-07-28T07:33:13.076Z,28.10
2018-07-28T07:35:41.246Z,28.30
2018-07-28T07:38:09.577Z,28.00
2018-07-28T07:40:37.854Z,28.20
2018-07-28T07:43:06.875Z,28.20
2018-07-28T07:45:35.072Z,27.90
2018-07-28T07:48:03.296Z,27.90
2018-07-28T07:50:31.495Z,27.90
2018-07-28T07:52:59.704Z,28.10
2018-07-28T07:55:28.253Z,28.20
2018-07-28T07:57:56.495Z,28.20
2018-07-28T08:00:24.666Z,28.40
2018-07-28T08:05:20.829Z,28.40
2018-07-28T08:10:17.358Z,28.90
2018-07-28T08:12:45.572Z,29.20
2018-07-28T08:15:13.789Z,29.30
2018-07-28T08:17:42.001Z,29.50
2018-07-28T08:20:10.187Z,29.80
2018-07-28T08:22:38.390Z,29.80
2018-07-28T08:25:06.629Z,30.00
2018-07-28T08:27:35.009Z,30.00
2018-07-28T08:30:03.292Z,30.30
2018-07-28T08:32:31.456Z,30.20
2018-07-28T08:34:59.664Z,30.20
2018-07-28T08:37:27.864Z,30.20
2018-07-28T08:39:56.119Z,30.40
2018-07-28T08:42:24.512Z,30.50
2018-07-28T08:44:52.681Z,30.60
2018-07-28T08:47:20.909Z,30.70
2018-07-28T08:49:49.127Z,30.70
2018-07-28T08:52:17.298Z,30.80
2018-07-28T08:54:45.522Z,30.60
2018-07-28T08:57:13.712Z,30.30
2018-07-28T08:59:42.576Z,30.00
2018-07-28T09:02:10.832Z,29.80
2018-07-28T09:04:39.001Z,30.20
2018-07-28T09:07:07.201Z,30.30
2018-07-28T09:09:35.370Z,30.50
2018-07-28T09:12:03.597Z,30.60
2018-07-28T09:14:31.792Z,30.70
2018-07-28T09:17:00.222Z,30.60
2018-07-28T09:19:28.932Z,30.40
2018-07-28T09:21:57.589Z,30.70
2018-07-28T09:24:26.279Z,30.30
2018-07-28T09:26:56.033Z,30.50
2018-07-28T09:29:24.743Z,30.80
2018-07-28T09:31:52.937Z,31.00
2018-07-28T09:34:21.096Z,31.10
2018-07-28T09:36:49.298Z,31.20
2018-07-28T09:39:17.579Z,31.00
2018-07-28T09:41:45.739Z,31.30
2018-07-28T09:44:13.937Z,31.60
2018-07-28T09:46:42.141Z,31.50
2018-07-28T09:49:10.357Z,31.50
2018-07-28T09:51:38.588Z,31.50
2018-07-28T09:54:06.781Z,31.60
2018-07-28T09:56:35.044Z,31.60
2018-07-28T09:59:03.313Z,31.80
2018-07-28T10:01:31.546Z,31.90
2018-07-28T10:03:59.757Z,32.00
2018-07-28T10:06:27.952Z,32.10
2018-07-28T10:08:56.150Z,32.10
2018-07-28T10:11:24.963Z,32.20
2018-07-28T10:13:53.198Z,32.10
2018-07-28T10:16:21.469Z,32.20
2018-07-28T10:18:49.700Z,31.90
2018-07-28T10:21:17.911Z,32.00
2018-07-28T10:23:46.094Z,32.10
2018-07-28T10:26:14.324Z,32.10
2018-07-28T10:28:42.496Z,32.30
2018-07-28T10:31:10.705Z,32.30
2018-07-28T10:33:38.913Z,32.40
2018-07-28T10:36:07.488Z,32.60
2018-07-28T10:38:35.730Z,33.00
2018-07-28T10:41:04.033Z,33.20
2018-07-28T10:43:32.304Z,33.40
2018-07-28T10:46:00.578Z,33.50
2018-07-28T10:48:28.825Z,33.20
2018-07-28T10:50:57.020Z,33.00
2018-07-28T10:53:25.200Z,33.10
2018-07-28T10:55:54.118Z,33.10
2018-07-28T10:58:22.620Z,33.10
2018-07-28T11:00:50.980Z,33.20
2018-07-28T11:03:19.226Z,33.20
2018-07-28T11:05:47.387Z,32.80
2018-07-28T11:08:16.317Z,32.30
2018-07-28T11:10:44.618Z,32.40
2018-07-28T11:13:13.235Z,32.20
2018-07-28T11:15:41.796Z,32.00
2018-07-28T11:18:10.053Z,31.60
2018-07-28T11:20:38.282Z,31.40
2018-07-28T11:23:06.593Z,30.80
2018-07-28T11:25:35.186Z,30.60
2018-07-28T11:28:03.907Z,29.60
2018-07-28T11:30:32.266Z,28.10
2018-07-28T11:33:11.664Z,25.40
2018-07-28T11:38:24.338Z,23.90
2018-07-28T11:41:03.604Z,23.70
2018-07-28T11:43:42.872Z,23.80
2018-07-28T11:46:11.120Z,23.90
2018-07-28T11:48:39.703Z,24.20
2018-07-28T11:51:07.928Z,24.60
2018-07-28T11:53:36.172Z,24.70
2018-07-28T11:56:04.824Z,24.90
2018-07-28T11:58:33.645Z,25.50
2018-07-28T12:01:02.581Z,26.50
2018-07-28T12:03:30.824Z,27.20
2018-07-28T12:05:59.032Z,28.10
2018-07-28T12:08:27.184Z,28.50
2018-07-28T12:10:55.436Z,28.90
2018-07-28T12:13:23.596Z,29.20
2018-07-28T12:15:51.795Z,29.30
2018-07-28T12:18:20.001Z,29.60
2018-07-28T12:20:48.199Z,30.00
2018-07-28T12:23:16.383Z,30.30
2018-07-28T12:25:44.540Z,30.60
2018-07-28T12:28:12.748Z,30.90
2018-07-28T12:30:40.939Z,31.20
2018-07-28T12:33:09.103Z,31.00
2018-07-28T12:35:37.289Z,31.10
2018-07-28T12:38:05.516Z,31.00
2018-07-28T12:40:33.766Z,31.20
2018-07-28T12:43:01.953Z,31.50
2018-07-28T12:45:30.191Z,31.60
2018-07-28T12:47:58.464Z,31.80
2018-07-28T12:50:26.632Z,31.90
2018-07-28T12:52:54.841Z,31.80
2018-07-28T12:55:23.006Z,31.90
2018-07-28T12:57:51.237Z,32.00
2018-07-28T13:00:19.479Z,31.70
2018-07-28T13:02:47.676Z,31.60
2018-07-28T13:05:15.889Z,31.50
2018-07-28T13:07:44.089Z,31.50
2018-07-28T13:10:12.307Z,31.60
2018-07-28T13:12:40.531Z,31.80
2018-07-28T13:15:08.705Z,31.80
2018-07-28T13:17:36.977Z,31.60
2018-07-28T13:20:05.433Z,31.50
2018-07-28T13:22:33.653Z,31.10
2018-07-28T13:25:01.850Z,31.20
2018-07-28T13:27:30.045Z,31.50
2018-07-28T13:29:58.413Z,31.90
2018-07-28T13:32:26.510Z,31.90
2018-07-28T13:34:54.741Z,31.80
2018-07-28T13:37:22.944Z,31.80
2018-07-28T13:39:51.320Z,31.90
2018-07-28T13:42:19.543Z,32.00
2018-07-28T13:44:47.764Z,31.80
2018-07-28T13:47:16.020Z,31.70
2018-07-28T13:49:44.242Z,31.90
2018-07-28T13:52:12.406Z,31.90
2018-07-28T13:54:40.623Z,31.80
2018-07-28T13:57:08.772Z,31.90
2018-07-28T13:59:36.984Z,32.00
2018-07-28T14:02:05.220Z,32.00
2018-07-28T14:04:33.390Z,32.10
2018-07-28T14:07:01.725Z,31.90
2018-07-28T14:09:29.876Z,31.90
2018-07-28T14:11:58.093Z,31.70
2018-07-28T14:14:29.238Z,31.60
2018-07-28T14:16:57.440Z,31.60
2018-07-28T14:19:25.605Z,31.50
2018-07-28T14:21:53.905Z,31.30
2018-07-28T14:24:22.080Z,31.10
2018-07-28T14:26:50.284Z,30.80
2018-07-28T14:29:18.747Z,30.30
2018-07-28T14:31:46.931Z,30.10
2018-07-28T14:34:15.220Z,29.80
2018-07-28T14:36:43.529Z,29.70
2018-07-28T14:39:11.797Z,30.00
2018-07-28T14:41:40.053Z,30.40
2018-07-28T14:44:08.231Z,30.20
2018-07-28T14:46:36.436Z,30.20
2018-07-28T14:49:04.730Z,30.20
2018-07-28T14:51:32.927Z,30.40
2018-07-28T14:54:01.140Z,30.70
2018-07-28T14:56:29.371Z,31.10
2018-07-28T14:58:57.565Z,31.30
2018-07-28T15:01:26.023Z,30.80
2018-07-28T15:03:54.205Z,30.50
2018-07-28T15:06:22.516Z,30.40
2018-07-28T15:08:50.681Z,30.30
2018-07-28T15:11:18.874Z,30.20
2018-07-28T15:13:47.075Z,29.90
2018-07-28T15:16:15.272Z,29.70
2018-07-28T15:18:43.412Z,29.60
2018-07-28T15:21:11.622Z,29.60
2018-07-28T15:23:39.831Z,29.70
2018-07-28T15:26:08.049Z,29.70
2018-07-28T15:28:36.206Z,29.60
2018-07-28T15:31:04.434Z,29.40
2018-07-28T15:33:32.599Z,29.20
2018-07-28T15:36:00.790Z,29.20
2018-07-28T15:38:29.136Z,29.20
2018-07-28T15:40:57.293Z,29.10
2018-07-28T15:43:25.513Z,29.20
2018-07-28T15:45:53.672Z,29.20
2018-07-28T15:48:21.868Z,29.20
2018-07-28T15:50:50.076Z,29.20
2018-07-28T15:53:19.289Z,29.00
2018-07-28T15:55:47.495Z,28.80
2018-07-28T15:58:15.671Z,28.70
2018-07-28T16:00:43.900Z,28.70
2018-07-28T16:03:12.070Z,28.60
2018-07-28T16:05:40.310Z,28.50
2018-07-28T16:08:08.497Z,28.40
2018-07-28T16:10:36.716Z,28.20
2018-07-28T16:13:04.933Z,28.10
2018-07-28T16:15:33.144Z,27.90
2018-07-28T16:18:01.293Z,27.80
2018-07-28T16:20:29.532Z,27.70
2018-07-28T16:22:57.701Z,27.70
2018-07-28T16:25:25.922Z,27.80
2018-07-28T16:27:54.469Z,27.70
2018-07-28T16:30:22.677Z,27.80
2018-07-28T16:32:50.868Z,27.80
2018-07-28T16:35:19.079Z,27.80
2018-07-28T16:37:47.280Z,27.60
2018-07-28T16:40:15.563Z,27.60
2018-07-28T16:42:43.773Z,27.50
2018-07-28T16:45:11.990Z,27.50
2018-07-28T16:47:40.240Z,27.40
2018-07-28T16:50:08.516Z,27.30
2018-07-28T16:52:36.806Z,27.20
2018-07-28T16:55:05.153Z,27.10
2018-07-28T16:57:33.333Z,27.00
2018-07-28T17:00:01.570Z,26.90
2018-07-28T17:02:29.800Z,26.90
2018-07-28T17:04:58.001Z,26.80
2018-07-28T17:07:26.200Z,26.80
2018-07-28T17:09:54.352Z,26.70
2018-07-28T17:12:22.548Z,26.60
2018-07-28T17:14:50.725Z,26.50
2018-07-28T17:17:18.953Z,26.40
2018-07-28T17:19:47.132Z,26.30
2018-07-28T17:22:15.479Z,26.20
2018-07-28T17:24:43.733Z,26.20
2018-07-28T17:27:11.896Z,26.10
2018-07-28T17:29:40.092Z,26.00
2018-07-28T17:32:08.357Z,25.90
2018-07-28T17:34:36.559Z,25.80
2018-07-28T17:37:04.954Z,25.80
2018-07-28T17:39:33.128Z,25.70
2018-07-28T17:42:01.351Z,25.70
2018-07-28T17:44:29.544Z,25.80
2018-07-28T17:46:57.735Z,25.80
2018-07-28T17:49:26.011Z,25.80
2018-07-28T17:51:54.216Z,25.80
2018-07-28T17:54:22.420Z,25.80
2018-07-28T17:56:50.646Z,25.70
2018-07-28T17:59:18.812Z,25.70
2018-07-28T18:01:47.013Z,25.60
2018-07-28T18:04:15.214Z,25.60
2018-07-28T18:06:43.448Z,25.70
2018-07-28T18:09:11.717Z,25.60
2018-07-28T18:11:39.996Z,25.60
2018-07-28T18:14:08.201Z,25.50
2018-07-28T18:19:04.333Z,25.30
2018-07-28T18:21:32.567Z,25.30
2018-07-28T18:24:00.734Z,25.30
2018-07-28T18:26:28.941Z,25.20
2018-07-28T18:28:57.104Z,25.10
2018-07-28T18:31:25.290Z,25.10
2018-07-28T18:33:53.509Z,25.00
2018-07-28T18:36:21.712Z,24.90
2018-07-28T18:38:49.862Z,24.80
2018-07-28T18:41:18.060Z,24.80
2018-07-28T18:43:46.213Z,24.70
2018-07-28T18:46:14.400Z,24.70
2018-07-28T18:48:42.651Z,24.70
2018-07-28T18:51:11.863Z,24.70
2018-07-28T18:53:40.065Z,24.70
2018-07-28T18:56:08.243Z,24.50
2018-07-28T18:58:36.464Z,24.50
2018-07-28T19:01:04.673Z,24.50
2018-07-28T19:03:32.931Z,24.50
2018-07-28T19:06:01.100Z,24.60
2018-07-28T19:08:29.278Z,24.50
2018-07-28T19:10:57.494Z,24.50
2018-07-28T19:13:31.148Z,24.50
2018-07-28T19:15:59.412Z,24.50
2018-07-28T19:18:33.069Z,24.50
2018-07-28T19:21:01.277Z,24.50
2018-07-28T19:23:35.151Z,24.40
2018-07-28T19:26:03.424Z,24.40
2018-07-28T19:28:38.120Z,24.40
2018-07-28T19:31:07.597Z,24.40
2018-07-28T19:33:35.821Z,24.40
2018-07-28T19:36:09.658Z,24.40
2018-07-28T19:38:37.938Z,24.40
2018-07-28T19:41:06.294Z,24.30
2018-07-28T19:43:34.509Z,24.20
2018-07-28T19:46:02.694Z,24.10
2018-07-28T19:48:30.962Z,24.00
2018-07-28T19:50:59.181Z,24.10
2018-07-28T19:53:27.548Z,24.10
2018-07-28T19:55:55.761Z,24.10
2018-07-28T19:58:24.281Z,24.10
2018-07-28T20:00:52.497Z,24.10
2018-07-28T20:03:20.833Z,24.00
2018-07-28T20:05:49.029Z,24.00
2018-07-28T20:08:17.237Z,24.00
2018-07-28T20:10:46.845Z,24.00
2018-07-28T20:13:15.045Z,24.00
2018-07-28T20:15:43.213Z,24.00
2018-07-28T20:18:11.441Z,24.00
2018-07-28T20:20:39.625Z,24.00
2018-07-28T20:23:07.883Z,24.00
2018-07-28T20:25:36.117Z,23.90
2018-07-28T20:28:04.318Z,23.90
2018-07-28T20:30:32.569Z,23.80
2018-07-28T20:33:00.773Z,23.70
2018-07-28T20:35:29.040Z,23.60
2018-07-28T20:37:57.245Z,23.60
2018-07-28T20:40:25.465Z,23.60
2018-07-28T20:42:53.664Z,23.70
2018-07-28T20:45:21.836Z,23.70
2018-07-28T20:47:50.068Z,23.60
2018-07-28T20:50:18.316Z,23.60
2018-07-28T20:52:46.545Z,23.60
2018-07-28T20:55:14.876Z,23.50
2018-07-28T21:00:11.066Z,23.50
2018-07-28T21:02:39.298Z,23.50
2018-07-28T21:05:07.546Z,23.60
2018-07-28T21:07:35.761Z,23.50
2018-07-28T21:10:04.217Z,23.50
2018-07-28T21:12:32.449Z,23.40
2018-07-28T21:15:00.787Z,23.30
2018-07-28T21:17:28.947Z,23.30
2018-07-28T21:19:57.181Z,23.30
2018-07-28T21:22:25.397Z,23.30
2018-07-28T21:24:53.647Z,23.20
2018-07-28T21:27:21.864Z,23.20
2018-07-28T21:29:50.045Z,23.30
2018-07-28T21:32:18.289Z,23.30
2018-07-28T21:34:46.491Z,23.40
2018-07-28T21:37:14.697Z,23.40
2018-07-28T21:39:42.914Z,23.40
2018-07-28T21:42:11.180Z,23.40
2018-07-28T21:44:39.394Z,23.30
2018-07-28T21:47:07.616Z,23.20
2018-07-28T21:49:35.840Z,23.10
2018-07-28T21:52:04.152Z,23.10
2018-07-28T21:54:32.391Z,23.10
2018-07-28T21:57:00.644Z,23.10
2018-07-28T21:59:28.854Z,23.10
2018-07-28T22:01:57.081Z,23.00
2018-07-28T22:04:26.757Z,22.90
2018-07-28T22:06:54.960Z,22.90
2018-07-28T22:09:23.248Z,22.80
2018-07-28T22:11:51.421Z,22.90
2018-07-28T22:14:19.621Z,22.80
2018-07-28T22:16:48.029Z,22.80
2018-07-28T22:19:16.239Z,22.80
2018-07-28T22:21:44.448Z,22.70
2018-07-28T22:24:12.633Z,22.70
2018-07-28T22:26:40.871Z,22.80
2018-07-28T22:29:09.137Z,22.90
2018-07-28T22:31:37.324Z,22.90
2018-07-28T22:34:05.711Z,22.80
2018-07-28T22:36:33.876Z,22.80
2018-07-28T22:39:02.089Z,22.80
2018-07-28T22:41:30.348Z,22.80
2018-07-28T22:43:58.581Z,22.80
2018-07-28T22:46:27.289Z,22.70
2018-07-28T22:48:55.969Z,22.70
2018-07-28T22:51:25.635Z,22.70
2018-07-28T22:53:54.384Z,22.70
2018-07-28T22:56:23.119Z,22.70
2018-07-28T22:58:51.925Z,22.70
2018-07-28T23:01:20.668Z,22.70
2018-07-28T23:03:49.353Z,22.80
2018-07-28T23:06:18.044Z,22.70
2018-07-28T23:08:46.753Z,22.70
2018-07-28T23:11:15.380Z,22.60
2018-07-28T23:13:43.979Z,22.60
2018-07-28T23:16:12.631Z,22.70
2018-07-28T23:18:41.312Z,22.60
2018-07-28T23:21:10.000Z,22.60
2018-07-28T23:23:38.635Z,22.40
2018-07-28T23:26:07.335Z,22.40
2018-07-28T23:28:36.080Z,22.40
2018-07-28T23:31:04.845Z,22.40
2018-07-28T23:33:33.030Z,22.40
2018-07-28T23:36:01.229Z,22.40
2018-07-28T23:38:29.403Z,22.40
2018-07-28T23:40:57.592Z,22.40
2018-07-28T23:43:25.810Z,22.50
2018-07-28T23:45:53.996Z,22.50
2018-07-28T23:48:22.213Z,22.50
2018-07-28T23:50:50.460Z,22.50
2018-07-28T23:53:18.653Z,22.40
2018-07-28T23:55:46.860Z,22.40
2018-07-28T23:58:15.051Z,22.50
